sensor_id;sensor_type;location;lat;lon;timestamp;P1;durP1;ratioP1;P2;durP2;ratioP2
50126;SDS011;36024;47.974;16.398;2022-08-06T00:02:18;6.35;;;5.85;;
50126;SDS011;36024;47.974;16.398;2022-08-06T00:04:51;6.55;;;5.45;;
50126;SDS011;36024;47.974;16.398;2022-08-06T00:07:19;6.47;;;5.70;;
50126;SDS011;36024;47.974;16.398;2022-08-06T00:09:51;6.28;;;5.78;;
50126;SDS011;36024;47.974;16.398;2022-08-06T00:12:26;6.20;;;5.68;;
50126;SDS011;36024;47.974;16.398;2022-08-06T00:14:55;5.55;;;5.15;;
50126;SDS011;36024;47.974;16.398;2022-08-06T00:17:22;5.60;;;5.10;;
50126;SDS011;36024;47.974;16.398;2022-08-06T00:19:50;6.00;;;5.40;;
50126;SDS011;36024;47.974;16.398;2022-08-06T00:22:26;5.57;;;5.07;;
50126;SDS011;36024;47.974;16.398;2022-08-06T00:24:54;5.72;;;5.13;;
50126;SDS011;36024;47.974;16.398;2022-08-06T00:27:23;6.43;;;5.43;;
50126;SDS011;36024;47.974;16.398;2022-08-06T00:30:07;5.53;;;4.93;;
50126;SDS011;36024;47.974;16.398;2022-08-06T00:32:47;5.72;;;5.18;;
50126;SDS011;36024;47.974;16.398;2022-08-06T00:35:21;5.35;;;4.85;;
50126;SDS011;36024;47.974;16.398;2022-08-06T00:37:49;5.53;;;5.00;;
50126;SDS011;36024;47.974;16.398;2022-08-06T00:40:24;5.43;;;4.93;;
50126;SDS011;36024;47.974;16.398;2022-08-06T00:42:59;5.38;;;4.97;;
50126;SDS011;36024;47.974;16.398;2022-08-06T00:45:34;5.20;;;4.70;;
50126;SDS011;36024;47.974;16.398;2022-08-06T00:48:11;5.35;;;4.80;;
50126;SDS011;36024;47.974;16.398;2022-08-06T00:50:56;5.70;;;5.20;;
50126;SDS011;36024;47.974;16.398;2022-08-06T00:53:26;5.72;;;5.13;;
50126;SDS011;36024;47.974;16.398;2022-08-06T00:55:59;5.13;;;4.75;;
50126;SDS011;36024;47.974;16.398;2022-08-06T00:58:36;5.55;;;5.05;;
50126;SDS011;36024;47.974;16.398;2022-08-06T01:01:07;5.55;;;4.60;;
50126;SDS011;36024;47.974;16.398;2022-08-06T01:03:43;5.45;;;4.95;;
50126;SDS011;36024;47.974;16.398;2022-08-06T01:06:20;5.35;;;4.85;;
50126;SDS011;36024;47.974;16.398;2022-08-06T01:09:08;5.65;;;5.18;;
50126;SDS011;36024;47.974;16.398;2022-08-06T01:11:36;6.35;;;4.88;;
50126;SDS011;36024;47.974;16.398;2022-08-06T01:14:04;5.20;;;4.80;;
50126;SDS011;36024;47.974;16.398;2022-08-06T01:27:49;5.05;;;4.65;;
50126;SDS011;36024;47.974;16.398;2022-08-06T01:30:23;4.75;;;4.10;;
50126;SDS011;36024;47.974;16.398;2022-08-06T01:33:01;5.22;;;4.55;;
50126;SDS011;36024;47.974;16.398;2022-08-06T01:35:42;6.10;;;4.85;;
50126;SDS011;36024;47.974;16.398;2022-08-06T01:38:21;5.28;;;4.53;;
50126;SDS011;36024;47.974;16.398;2022-08-06T01:40:49;4.75;;;4.43;;
50126;SDS011;36024;47.974;16.398;2022-08-06T01:43:17;8.93;;;4.95;;
50126;SDS011;36024;47.974;16.398;2022-08-06T01:46:06;4.78;;;4.30;;
50126;SDS011;36024;47.974;16.398;2022-08-06T01:48:36;5.35;;;4.53;;
50126;SDS011;36024;47.974;16.398;2022-08-06T01:51:04;7.22;;;4.55;;
50126;SDS011;36024;47.974;16.398;2022-08-06T01:53:42;11.00;;;4.68;;
50126;SDS011;36024;47.974;16.398;2022-08-06T01:56:29;5.53;;;4.45;;
50126;SDS011;36024;47.974;16.398;2022-08-06T01:59:17;20.42;;;4.97;;
50126;SDS011;36024;47.974;16.398;2022-08-06T02:01:49;7.45;;;4.20;;
50126;SDS011;36024;47.974;16.398;2022-08-06T02:04:21;7.65;;;4.07;;
50126;SDS011;36024;47.974;16.398;2022-08-06T02:06:52;5.45;;;3.85;;
50126;SDS011;36024;47.974;16.398;2022-08-06T02:09:20;6.28;;;3.72;;
50126;SDS011;36024;47.974;16.398;2022-08-06T02:12:03;3.97;;;3.70;;
50126;SDS011;36024;47.974;16.398;2022-08-06T02:14:40;4.13;;;3.83;;
50126;SDS011;36024;47.974;16.398;2022-08-06T02:17:15;4.85;;;3.58;;
50126;SDS011;36024;47.974;16.398;2022-08-06T02:19:52;4.45;;;3.67;;
50126;SDS011;36024;47.974;16.398;2022-08-06T02:22:38;4.28;;;3.97;;
50126;SDS011;36024;47.974;16.398;2022-08-06T02:25:09;4.57;;;3.55;;
50126;SDS011;36024;47.974;16.398;2022-08-06T02:27:53;3.83;;;3.53;;
50126;SDS011;36024;47.974;16.398;2022-08-06T02:30:24;8.70;;;4.00;;
50126;SDS011;36024;47.974;16.398;2022-08-06T02:33:02;5.10;;;3.80;;
50126;SDS011;36024;47.974;16.398;2022-08-06T02:35:31;4.88;;;3.92;;
50126;SDS011;36024;47.974;16.398;2022-08-06T02:38:03;4.60;;;4.20;;
50126;SDS011;36024;47.974;16.398;2022-08-06T02:40:36;4.55;;;3.72;;
50126;SDS011;36024;47.974;16.398;2022-08-06T02:43:14;4.05;;;3.75;;
50126;SDS011;36024;47.974;16.398;2022-08-06T02:46:03;4.50;;;4.10;;
50126;SDS011;36024;47.974;16.398;2022-08-06T02:48:47;4.05;;;3.75;;
50126;SDS011;36024;47.974;16.398;2022-08-06T02:51:25;3.97;;;3.75;;
50126;SDS011;36024;47.974;16.398;2022-08-06T02:54:17;4.13;;;3.78;;
50126;SDS011;36024;47.974;16.398;2022-08-06T02:56:50;4.10;;;3.70;;
50126;SDS011;36024;47.974;16.398;2022-08-06T02:59:20;5.50;;;3.97;;
50126;SDS011;36024;47.974;16.398;2022-08-06T03:01:52;4.15;;;3.85;;
50126;SDS011;36024;47.974;16.398;2022-08-06T03:04:23;4.60;;;4.10;;
50126;SDS011;36024;47.974;16.398;2022-08-06T03:06:58;5.50;;;3.55;;
50126;SDS011;36024;47.974;16.398;2022-08-06T03:09:32;6.85;;;4.10;;
50126;SDS011;36024;47.974;16.398;2022-08-06T03:12:03;6.60;;;3.60;;
50126;SDS011;36024;47.974;16.398;2022-08-06T03:14:51;6.65;;;3.80;;
50126;SDS011;36024;47.974;16.398;2022-08-06T03:17:35;4.00;;;3.60;;
50126;SDS011;36024;47.974;16.398;2022-08-06T03:20:02;4.57;;;3.33;;
50126;SDS011;36024;47.974;16.398;2022-08-06T03:22:33;5.93;;;3.50;;
50126;SDS011;36024;47.974;16.398;2022-08-06T03:25:10;3.88;;;3.58;;
50126;SDS011;36024;47.974;16.398;2022-08-06T03:27:40;4.13;;;3.83;;
50126;SDS011;36024;47.974;16.398;2022-08-06T03:30:14;4.90;;;4.45;;
50126;SDS011;36024;47.974;16.398;2022-08-06T03:33:16;4.43;;;3.92;;
50126;SDS011;36024;47.974;16.398;2022-08-06T03:36:04;3.92;;;3.63;;
50126;SDS011;36024;47.974;16.398;2022-08-06T03:38:37;3.75;;;3.45;;
50126;SDS011;36024;47.974;16.398;2022-08-06T03:41:05;4.15;;;3.75;;
50126;SDS011;36024;47.974;16.398;2022-08-06T03:43:33;3.78;;;3.50;;
50126;SDS011;36024;47.974;16.398;2022-08-06T03:46:23;4.30;;;3.90;;
50126;SDS011;36024;47.974;16.398;2022-08-06T03:48:52;4.03;;;3.72;;
50126;SDS011;36024;47.974;16.398;2022-08-06T03:51:21;4.15;;;3.85;;
50126;SDS011;36024;47.974;16.398;2022-08-06T03:54:10;3.92;;;3.47;;
50126;SDS011;36024;47.974;16.398;2022-08-06T03:56:39;3.75;;;3.50;;
50126;SDS011;36024;47.974;16.398;2022-08-06T03:59:15;4.20;;;3.80;;
50126;SDS011;36024;47.974;16.398;2022-08-06T04:01:43;4.28;;;3.97;;
50126;SDS011;36024;47.974;16.398;2022-08-06T04:04:16;3.92;;;3.60;;
50126;SDS011;36024;47.974;16.398;2022-08-06T04:06:56;4.10;;;3.80;;
50126;SDS011;36024;47.974;16.398;2022-08-06T04:09:25;3.88;;;3.55;;
50126;SDS011;36024;47.974;16.398;2022-08-06T04:12:14;3.72;;;3.42;;
50126;SDS011;36024;47.974;16.398;2022-08-06T04:15:00;4.32;;;3.78;;
50126;SDS011;36024;47.974;16.398;2022-08-06T04:17:33;3.65;;;3.35;;
50126;SDS011;36024;47.974;16.398;2022-08-06T04:20:06;3.42;;;3.15;;
50126;SDS011;36024;47.974;16.398;2022-08-06T04:22:34;3.63;;;3.40;;
50126;SDS011;36024;47.974;16.398;2022-08-06T04:25:21;4.85;;;3.60;;
50126;SDS011;36024;47.974;16.398;2022-08-06T04:27:49;3.78;;;3.47;;
50126;SDS011;36024;47.974;16.398;2022-08-06T04:30:20;4.15;;;3.40;;
50126;SDS011;36024;47.974;16.398;2022-08-06T04:32:50;3.70;;;3.35;;
50126;SDS011;36024;47.974;16.398;2022-08-06T04:35:26;4.05;;;3.55;;
50126;SDS011;36024;47.974;16.398;2022-08-06T04:38:15;3.90;;;3.60;;
50126;SDS011;36024;47.974;16.398;2022-08-06T04:40:53;3.30;;;3.10;;
50126;SDS011;36024;47.974;16.398;2022-08-06T04:43:20;4.70;;;3.50;;
50126;SDS011;36024;47.974;16.398;2022-08-06T04:45:47;3.53;;;3.33;;
50126;SDS011;36024;47.974;16.398;2022-08-06T04:48:34;3.50;;;3.30;;
50126;SDS011;36024;47.974;16.398;2022-08-06T04:51:12;3.80;;;3.50;;
50126;SDS011;36024;47.974;16.398;2022-08-06T04:53:59;4.20;;;3.80;;
50126;SDS011;36024;47.974;16.398;2022-08-06T04:56:26;3.83;;;3.53;;
50126;SDS011;36024;47.974;16.398;2022-08-06T04:59:03;4.55;;;4.13;;
50126;SDS011;36024;47.974;16.398;2022-08-06T05:01:33;5.55;;;4.32;;
50126;SDS011;36024;47.974;16.398;2022-08-06T05:04:20;4.55;;;4.05;;
50126;SDS011;36024;47.974;16.398;2022-08-06T05:09:24;4.13;;;3.78;;
50126;SDS011;36024;47.974;16.398;2022-08-06T05:12:25;4.40;;;4.10;;
50126;SDS011;36024;47.974;16.398;2022-08-06T05:17:35;4.00;;;3.70;;
50126;SDS011;36024;47.974;16.398;2022-08-06T05:20:17;5.18;;;4.68;;
50126;SDS011;36024;47.974;16.398;2022-08-06T05:23:02;4.93;;;4.43;;
50126;SDS011;36024;47.974;16.398;2022-08-06T05:25:45;4.97;;;4.57;;
50126;SDS011;36024;47.974;16.398;2022-08-06T05:28:19;5.25;;;4.75;;
50126;SDS011;36024;47.974;16.398;2022-08-06T05:30:52;4.75;;;4.38;;
50126;SDS011;36024;47.974;16.398;2022-08-06T05:35:55;4.93;;;4.63;;
50126;SDS011;36024;47.974;16.398;2022-08-06T05:38:28;4.90;;;4.60;;
50126;SDS011;36024;47.974;16.398;2022-08-06T05:40:57;5.65;;;4.75;;
50126;SDS011;36024;47.974;16.398;2022-08-06T05:43:25;4.85;;;4.55;;
50126;SDS011;36024;47.974;16.398;2022-08-06T05:46:18;4.82;;;4.53;;
50126;SDS011;36024;47.974;16.398;2022-08-06T05:48:55;4.72;;;4.32;;
50126;SDS011;36024;47.974;16.398;2022-08-06T05:51:32;5.43;;;4.35;;
50126;SDS011;36024;47.974;16.398;2022-08-06T05:54:12;4.72;;;4.43;;
50126;SDS011;36024;47.974;16.398;2022-08-06T05:56:42;5.20;;;4.80;;
50126;SDS011;36024;47.974;16.398;2022-08-06T05:59:21;4.53;;;4.22;;
50126;SDS011;36024;47.974;16.398;2022-08-06T06:02:11;4.30;;;3.90;;
50126;SDS011;36024;47.974;16.398;2022-08-06T06:04:41;4.90;;;4.50;;
50126;SDS011;36024;47.974;16.398;2022-08-06T06:07:26;4.55;;;4.18;;
50126;SDS011;36024;47.974;16.398;2022-08-06T06:10:12;4.40;;;4.10;;
50126;SDS011;36024;47.974;16.398;2022-08-06T06:12:44;4.55;;;4.20;;
50126;SDS011;36024;47.974;16.398;2022-08-06T06:15:12;4.97;;;4.57;;
50126;SDS011;36024;47.974;16.398;2022-08-06T06:21:23;4.47;;;4.18;;
50126;SDS011;36024;47.974;16.398;2022-08-06T06:24:21;4.25;;;3.92;;
50126;SDS011;36024;47.974;16.398;2022-08-06T06:27:00;4.75;;;3.92;;
50126;SDS011;36024;47.974;16.398;2022-08-06T06:30:03;5.00;;;4.50;;
50126;SDS011;36024;47.974;16.398;2022-08-06T06:35:18;4.57;;;4.28;;
50126;SDS011;36024;47.974;16.398;2022-08-06T06:44:04;5.13;;;4.72;;
50126;SDS011;36024;47.974;16.398;2022-08-06T06:49:16;5.07;;;4.65;;
50126;SDS011;36024;47.974;16.398;2022-08-06T06:52:06;5.25;;;4.85;;
50126;SDS011;36024;47.974;16.398;2022-08-06T06:54:40;5.28;;;4.78;;
50126;SDS011;36024;47.974;16.398;2022-08-06T06:57:11;4.97;;;4.57;;
50126;SDS011;36024;47.974;16.398;2022-08-06T06:59:43;4.80;;;4.50;;
50126;SDS011;36024;47.974;16.398;2022-08-06T07:02:33;4.88;;;4.57;;
50126;SDS011;36024;47.974;16.398;2022-08-06T07:05:03;4.85;;;4.55;;
50126;SDS011;36024;47.974;16.398;2022-08-06T07:07:33;5.00;;;4.60;;
50126;SDS011;36024;47.974;16.398;2022-08-06T07:10:02;5.03;;;4.63;;
50126;SDS011;36024;47.974;16.398;2022-08-06T07:12:36;5.18;;;4.78;;
50126;SDS011;36024;47.974;16.398;2022-08-06T07:15:04;4.65;;;4.32;;
50126;SDS011;36024;47.974;16.398;2022-08-06T07:17:44;5.20;;;4.78;;
50126;SDS011;36024;47.974;16.398;2022-08-06T07:20:16;5.30;;;4.90;;
50126;SDS011;36024;47.974;16.398;2022-08-06T07:22:52;4.65;;;4.28;;
50126;SDS011;36024;47.974;16.398;2022-08-06T07:25:40;4.80;;;4.50;;
50126;SDS011;36024;47.974;16.398;2022-08-06T07:28:20;4.68;;;4.20;;
50126;SDS011;36024;47.974;16.398;2022-08-06T07:30:54;4.30;;;3.90;;
50126;SDS011;36024;47.974;16.398;2022-08-06T07:33:30;4.35;;;4.05;;
50126;SDS011;36024;47.974;16.398;2022-08-06T07:36:20;4.85;;;4.15;;
50126;SDS011;36024;47.974;16.398;2022-08-06T07:38:52;4.47;;;4.07;;
50126;SDS011;36024;47.974;16.398;2022-08-06T07:41:22;3.80;;;3.50;;
50126;SDS011;36024;47.974;16.398;2022-08-06T07:44:09;3.60;;;3.30;;
50126;SDS011;36024;47.974;16.398;2022-08-06T07:46:39;3.65;;;3.35;;
50126;SDS011;36024;47.974;16.398;2022-08-06T07:49:18;3.20;;;2.70;;
50126;SDS011;36024;47.974;16.398;2022-08-06T07:51:45;2.80;;;2.60;;
50126;SDS011;36024;47.974;16.398;2022-08-06T07:54:15;4.10;;;2.60;;
50126;SDS011;36024;47.974;16.398;2022-08-06T07:56:59;4.15;;;2.70;;
50126;SDS011;36024;47.974;16.398;2022-08-06T07:59:28;2.70;;;2.50;;
50126;SDS011;36024;47.974;16.398;2022-08-06T08:01:56;2.33;;;2.20;;
50126;SDS011;36024;47.974;16.398;2022-08-06T08:04:26;3.25;;;2.58;;
50126;SDS011;36024;47.974;16.398;2022-08-06T08:07:19;2.40;;;2.20;;
50126;SDS011;36024;47.974;16.398;2022-08-06T08:09:47;2.72;;;2.20;;
50126;SDS011;36024;47.974;16.398;2022-08-06T08:12:29;2.15;;;2.05;;
50126;SDS011;36024;47.974;16.398;2022-08-06T08:15:02;2.45;;;2.25;;
50126;SDS011;36024;47.974;16.398;2022-08-06T08:17:31;3.97;;;2.00;;
50126;SDS011;36024;47.974;16.398;2022-08-06T08:20:09;2.05;;;1.90;;
50126;SDS011;36024;47.974;16.398;2022-08-06T08:22:45;1.60;;;1.50;;
50126;SDS011;36024;47.974;16.398;2022-08-06T08:25:17;3.70;;;1.75;;
50126;SDS011;36024;47.974;16.398;2022-08-06T08:28:07;1.50;;;1.40;;
50126;SDS011;36024;47.974;16.398;2022-08-06T08:30:41;1.60;;;1.50;;
50126;SDS011;36024;47.974;16.398;2022-08-06T08:33:12;2.10;;;1.52;;
50126;SDS011;36024;47.974;16.398;2022-08-06T08:35:44;2.80;;;1.30;;
50126;SDS011;36024;47.974;16.398;2022-08-06T08:38:26;1.40;;;1.30;;
50126;SDS011;36024;47.974;16.398;2022-08-06T08:40:55;1.70;;;1.23;;
50126;SDS011;36024;47.974;16.398;2022-08-06T08:43:24;1.40;;;1.20;;
50126;SDS011;36024;47.974;16.398;2022-08-06T08:46:15;4.47;;;1.13;;
50126;SDS011;36024;47.974;16.398;2022-08-06T08:48:41;1.95;;;1.00;;
50126;SDS011;36024;47.974;16.398;2022-08-06T08:51:12;1.75;;;1.10;;
50126;SDS011;36024;47.974;16.398;2022-08-06T08:53:48;2.83;;;0.98;;
50126;SDS011;36024;47.974;16.398;2022-08-06T08:56:23;2.22;;;1.05;;
50126;SDS011;36024;47.974;16.398;2022-08-06T08:59:10;1.42;;;1.00;;
50126;SDS011;36024;47.974;16.398;2022-08-06T09:01:57;1.67;;;1.25;;
50126;SDS011;36024;47.974;16.398;2022-08-06T09:04:26;1.35;;;1.00;;
50126;SDS011;36024;47.974;16.398;2022-08-06T09:06:53;1.42;;;1.00;;
50126;SDS011;36024;47.974;16.398;2022-08-06T09:09:21;0.95;;;0.95;;
50126;SDS011;36024;47.974;16.398;2022-08-06T09:11:57;1.45;;;1.10;;
50126;SDS011;36024;47.974;16.398;2022-08-06T09:14:44;1.25;;;1.10;;
50126;SDS011;36024;47.974;16.398;2022-08-06T09:17:12;1.00;;;1.00;;
50126;SDS011;36024;47.974;16.398;2022-08-06T09:19:43;1.23;;;1.00;;
50126;SDS011;36024;47.974;16.398;2022-08-06T09:22:10;1.48;;;1.00;;
50126;SDS011;36024;47.974;16.398;2022-08-06T09:24:37;1.20;;;1.10;;
50126;SDS011;36024;47.974;16.398;2022-08-06T09:29:53;1.55;;;1.27;;
50126;SDS011;36024;47.974;16.398;2022-08-06T09:32:37;2.35;;;1.05;;
50126;SDS011;36024;47.974;16.398;2022-08-06T09:35:30;1.48;;;1.02;;
50126;SDS011;36024;47.974;16.398;2022-08-06T09:38:10;1.75;;;1.00;;
50126;SDS011;36024;47.974;16.398;2022-08-06T09:41:01;1.20;;;1.10;;
50126;SDS011;36024;47.974;16.398;2022-08-06T09:43:34;1.30;;;1.20;;
50126;SDS011;36024;47.974;16.398;2022-08-06T09:49:15;0.93;;;0.90;;
50126;SDS011;36024;47.974;16.398;2022-08-06T09:52:09;1.45;;;1.10;;
50126;SDS011;36024;47.974;16.398;2022-08-06T09:54:39;3.80;;;1.02;;
50126;SDS011;36024;47.974;16.398;2022-08-06T09:57:05;1.05;;;0.95;;
50126;SDS011;36024;47.974;16.398;2022-08-06T09:59:43;1.10;;;1.00;;
50126;SDS011;36024;47.974;16.398;2022-08-06T10:02:17;0.90;;;0.90;;
50126;SDS011;36024;47.974;16.398;2022-08-06T10:04:55;0.80;;;0.80;;
50126;SDS011;36024;47.974;16.398;2022-08-06T10:07:42;0.90;;;0.90;;
50126;SDS011;36024;47.974;16.398;2022-08-06T10:10:12;2.10;;;1.00;;
50126;SDS011;36024;47.974;16.398;2022-08-06T10:13:09;1.20;;;0.90;;
50126;SDS011;36024;47.974;16.398;2022-08-06T10:15:37;2.03;;;1.10;;
50126;SDS011;36024;47.974;16.398;2022-08-06T10:18:37;0.88;;;0.88;;
50126;SDS011;36024;47.974;16.398;2022-08-06T10:21:23;0.80;;;0.80;;
50126;SDS011;36024;47.974;16.398;2022-08-06T10:24:08;0.70;;;0.70;;
50126;SDS011;36024;47.974;16.398;2022-08-06T10:26:36;1.02;;;0.70;;
50126;SDS011;36024;47.974;16.398;2022-08-06T10:29:04;0.60;;;0.60;;
50126;SDS011;36024;47.974;16.398;2022-08-06T10:31:32;0.93;;;0.68;;
50126;SDS011;36024;47.974;16.398;2022-08-06T10:34:15;0.60;;;0.60;;
50126;SDS011;36024;47.974;16.398;2022-08-06T10:36:52;0.60;;;0.60;;
50126;SDS011;36024;47.974;16.398;2022-08-06T10:39:58;0.60;;;0.60;;
50126;SDS011;36024;47.974;16.398;2022-08-06T10:42:36;0.82;;;0.60;;
50126;SDS011;36024;47.974;16.398;2022-08-06T10:45:07;0.60;;;0.60;;
50126;SDS011;36024;47.974;16.398;2022-08-06T10:47:39;0.82;;;0.80;;
50126;SDS011;36024;47.974;16.398;2022-08-06T10:50:27;0.60;;;0.60;;
50126;SDS011;36024;47.974;16.398;2022-08-06T10:53:07;2.08;;;0.82;;
50126;SDS011;36024;47.974;16.398;2022-08-06T10:55:45;0.80;;;0.80;;
50126;SDS011;36024;47.974;16.398;2022-08-06T10:58:14;0.98;;;0.98;;
50126;SDS011;36024;47.974;16.398;2022-08-06T11:00:43;0.90;;;0.90;;
50126;SDS011;36024;47.974;16.398;2022-08-06T11:03:24;0.77;;;0.77;;
50126;SDS011;36024;47.974;16.398;2022-08-06T11:11:43;1.10;;;1.00;;
50126;SDS011;36024;47.974;16.398;2022-08-06T11:14:40;1.05;;;0.80;;
50126;SDS011;36024;47.974;16.398;2022-08-06T11:17:07;2.08;;;0.90;;
50126;SDS011;36024;47.974;16.398;2022-08-06T11:19:41;1.17;;;1.02;;
50126;SDS011;36024;47.974;16.398;2022-08-06T11:22:33;1.00;;;0.93;;
50126;SDS011;36024;47.974;16.398;2022-08-06T11:25:05;1.02;;;1.00;;
50126;SDS011;36024;47.974;16.398;2022-08-06T11:27:54;1.40;;;1.30;;
50126;SDS011;36024;47.974;16.398;2022-08-06T11:30:38;1.13;;;1.13;;
50126;SDS011;36024;47.974;16.398;2022-08-06T11:33:06;2.13;;;1.35;;
50126;SDS011;36024;47.974;16.398;2022-08-06T11:38:09;1.50;;;1.40;;
50126;SDS011;36024;47.974;16.398;2022-08-06T11:41:00;1.88;;;1.20;;
50126;SDS011;36024;47.974;16.398;2022-08-06T11:54:36;2.15;;;1.50;;
50126;SDS011;36024;47.974;16.398;2022-08-06T11:57:23;1.80;;;1.70;;
50126;SDS011;36024;47.974;16.398;2022-08-06T12:00:12;1.60;;;1.50;;
50126;SDS011;36024;47.974;16.398;2022-08-06T12:07:39;1.83;;;1.73;;
50126;SDS011;36024;47.974;16.398;2022-08-06T12:10:18;2.17;;;1.80;;
50126;SDS011;36024;47.974;16.398;2022-08-06T12:12:55;1.90;;;1.80;;
50126;SDS011;36024;47.974;16.398;2022-08-06T12:18:12;3.47;;;1.95;;
50126;SDS011;36024;47.974;16.398;2022-08-06T12:20:46;1.80;;;1.70;;
50126;SDS011;36024;47.974;16.398;2022-08-06T12:23:21;1.60;;;1.50;;
50126;SDS011;36024;47.974;16.398;2022-08-06T12:26:09;1.88;;;1.77;;
50126;SDS011;36024;47.974;16.398;2022-08-06T12:28:36;2.35;;;1.48;;
50126;SDS011;36024;47.974;16.398;2022-08-06T12:31:04;2.25;;;1.50;;
50126;SDS011;36024;47.974;16.398;2022-08-06T12:33:50;1.90;;;1.80;;
50126;SDS011;36024;47.974;16.398;2022-08-06T12:36:17;1.90;;;1.80;;
50126;SDS011;36024;47.974;16.398;2022-08-06T12:39:00;2.97;;;1.63;;
50126;SDS011;36024;47.974;16.398;2022-08-06T12:41:33;1.50;;;1.40;;
50126;SDS011;36024;47.974;16.398;2022-08-06T12:44:12;2.58;;;1.80;;
50126;SDS011;36024;47.974;16.398;2022-08-06T12:47:10;1.75;;;1.65;;
50126;SDS011;36024;47.974;16.398;2022-08-06T12:49:40;1.83;;;1.60;;
50126;SDS011;36024;47.974;16.398;2022-08-06T12:52:12;2.75;;;1.67;;
50126;SDS011;36024;47.974;16.398;2022-08-06T12:54:44;1.88;;;1.77;;
50126;SDS011;36024;47.974;16.398;2022-08-06T12:57:21;2.17;;;1.83;;
50126;SDS011;36024;47.974;16.398;2022-08-06T13:00:12;2.13;;;2.00;;
50126;SDS011;36024;47.974;16.398;2022-08-06T13:02:40;1.90;;;1.80;;
50126;SDS011;36024;47.974;16.398;2022-08-06T13:05:07;2.15;;;1.70;;
50126;SDS011;36024;47.974;16.398;2022-08-06T13:07:39;2.00;;;1.90;;
50126;SDS011;36024;47.974;16.398;2022-08-06T13:10:10;2.00;;;1.90;;
50126;SDS011;36024;47.974;16.398;2022-08-06T13:12:59;1.70;;;1.60;;
50126;SDS011;36024;47.974;16.398;2022-08-06T13:18:26;1.92;;;1.83;;
50126;SDS011;36024;47.974;16.398;2022-08-06T13:21:15;2.65;;;2.08;;
50126;SDS011;36024;47.974;16.398;2022-08-06T13:23:44;2.85;;;1.98;;
50126;SDS011;36024;47.974;16.398;2022-08-06T13:29:06;2.10;;;1.92;;
50126;SDS011;36024;47.974;16.398;2022-08-06T13:32:00;2.78;;;1.95;;
50126;SDS011;36024;47.974;16.398;2022-08-06T13:34:49;2.22;;;1.88;;
50126;SDS011;36024;47.974;16.398;2022-08-06T13:37:39;2.60;;;2.20;;
50126;SDS011;36024;47.974;16.398;2022-08-06T13:40:40;2.22;;;2.10;;
50126;SDS011;36024;47.974;16.398;2022-08-06T13:43:13;2.00;;;1.90;;
50126;SDS011;36024;47.974;16.398;2022-08-06T13:46:06;2.40;;;2.20;;
50126;SDS011;36024;47.974;16.398;2022-08-06T13:48:55;3.35;;;2.05;;
50126;SDS011;36024;47.974;16.398;2022-08-06T13:51:27;2.65;;;2.22;;
50126;SDS011;36024;47.974;16.398;2022-08-06T13:54:02;3.60;;;2.10;;
50126;SDS011;36024;47.974;16.398;2022-08-06T13:56:44;4.05;;;2.40;;
50126;SDS011;36024;47.974;16.398;2022-08-06T13:59:14;2.58;;;2.38;;
50126;SDS011;36024;47.974;16.398;2022-08-06T14:01:43;2.67;;;2.53;;
50126;SDS011;36024;47.974;16.398;2022-08-06T14:04:15;2.67;;;2.47;;
50126;SDS011;36024;47.974;16.398;2022-08-06T14:06:45;2.80;;;2.60;;
50126;SDS011;36024;47.974;16.398;2022-08-06T14:09:14;3.15;;;2.70;;
50126;SDS011;36024;47.974;16.398;2022-08-06T14:12:05;3.10;;;2.90;;
50126;SDS011;36024;47.974;16.398;2022-08-06T14:14:33;2.80;;;2.60;;
50126;SDS011;36024;47.974;16.398;2022-08-06T14:17:00;2.78;;;2.58;;
50126;SDS011;36024;47.974;16.398;2022-08-06T14:19:28;3.65;;;2.85;;
50126;SDS011;36024;47.974;16.398;2022-08-06T14:22:15;3.30;;;3.10;;
50126;SDS011;36024;47.974;16.398;2022-08-06T14:24:43;2.83;;;2.63;;
50126;SDS011;36024;47.974;16.398;2022-08-06T14:27:18;2.75;;;2.53;;
50126;SDS011;36024;47.974;16.398;2022-08-06T14:29:49;3.33;;;3.10;;
50126;SDS011;36024;47.974;16.398;2022-08-06T14:32:36;3.55;;;3.17;;
50126;SDS011;36024;47.974;16.398;2022-08-06T14:35:04;3.55;;;3.08;;
50126;SDS011;36024;47.974;16.398;2022-08-06T14:37:32;3.22;;;3.00;;
50126;SDS011;36024;47.974;16.398;2022-08-06T14:40:18;2.90;;;2.70;;
50126;SDS011;36024;47.974;16.398;2022-08-06T14:43:25;3.20;;;3.00;;
50126;SDS011;36024;47.974;16.398;2022-08-06T14:46:22;2.95;;;2.65;;
50126;SDS011;36024;47.974;16.398;2022-08-06T14:48:52;3.95;;;3.35;;
50126;SDS011;36024;47.974;16.398;2022-08-06T14:51:25;4.28;;;3.97;;
50126;SDS011;36024;47.974;16.398;2022-08-06T14:54:13;4.70;;;4.30;;
50126;SDS011;36024;47.974;16.398;2022-08-06T14:56:41;4.38;;;4.07;;
50126;SDS011;36024;47.974;16.398;2022-08-06T14:59:17;4.57;;;4.28;;
50126;SDS011;36024;47.974;16.398;2022-08-06T15:01:44;5.35;;;4.93;;
50126;SDS011;36024;47.974;16.398;2022-08-06T15:04:11;5.32;;;4.80;;
50126;SDS011;36024;47.974;16.398;2022-08-06T15:06:48;5.43;;;4.87;;
50126;SDS011;36024;47.974;16.398;2022-08-06T15:09:22;4.70;;;4.40;;
50126;SDS011;36024;47.974;16.398;2022-08-06T15:12:09;4.70;;;4.30;;
50126;SDS011;36024;47.974;16.398;2022-08-06T15:14:37;5.10;;;4.80;;
50126;SDS011;36024;47.974;16.398;2022-08-06T15:17:16;4.93;;;4.57;;
50126;SDS011;36024;47.974;16.398;2022-08-06T15:20:03;4.75;;;4.45;;
50126;SDS011;36024;47.974;16.398;2022-08-06T15:22:31;5.10;;;4.80;;
50126;SDS011;36024;47.974;16.398;2022-08-06T15:25:02;4.65;;;4.35;;
50126;SDS011;36024;47.974;16.398;2022-08-06T15:27:35;4.88;;;4.47;;
50126;SDS011;36024;47.974;16.398;2022-08-06T15:30:02;5.40;;;5.00;;
50126;SDS011;36024;47.974;16.398;2022-08-06T15:32:30;5.20;;;4.90;;
50126;SDS011;36024;47.974;16.398;2022-08-06T15:34:57;5.90;;;4.80;;
50126;SDS011;36024;47.974;16.398;2022-08-06T15:37:24;5.70;;;5.20;;
50126;SDS011;36024;47.974;16.398;2022-08-06T15:40:11;5.53;;;5.13;;
50126;SDS011;36024;47.974;16.398;2022-08-06T15:42:39;6.00;;;5.60;;
50126;SDS011;36024;47.974;16.398;2022-08-06T15:45:08;6.18;;;5.68;;
50126;SDS011;36024;47.974;16.398;2022-08-06T15:47:55;6.07;;;5.68;;
50126;SDS011;36024;47.974;16.398;2022-08-06T15:50:25;6.63;;;6.03;;
50126;SDS011;36024;47.974;16.398;2022-08-06T15:53:05;6.22;;;5.82;;
50126;SDS011;36024;47.974;16.398;2022-08-06T15:55:49;5.73;;;5.33;;
50126;SDS011;36024;47.974;16.398;2022-08-06T15:58:15;6.07;;;5.60;;
50126;SDS011;36024;47.974;16.398;2022-08-06T16:00:54;6.27;;;5.20;;
50126;SDS011;36024;47.974;16.398;2022-08-06T16:03:33;5.90;;;5.32;;
50126;SDS011;36024;47.974;16.398;2022-08-06T16:06:20;5.65;;;5.22;;
50126;SDS011;36024;47.974;16.398;2022-08-06T16:08:53;5.60;;;5.20;;
50126;SDS011;36024;47.974;16.398;2022-08-06T16:11:25;5.60;;;5.20;;
50126;SDS011;36024;47.974;16.398;2022-08-06T16:14:12;5.40;;;4.90;;
50126;SDS011;36024;47.974;16.398;2022-08-06T16:16:45;5.23;;;4.73;;
50126;SDS011;36024;47.974;16.398;2022-08-06T16:19:12;5.23;;;4.93;;
50126;SDS011;36024;47.974;16.398;2022-08-06T16:21:47;4.80;;;4.40;;
50126;SDS011;36024;47.974;16.398;2022-08-06T16:24:14;4.90;;;4.50;;
50126;SDS011;36024;47.974;16.398;2022-08-06T16:26:42;4.93;;;4.63;;
50126;SDS011;36024;47.974;16.398;2022-08-06T16:29:23;4.57;;;4.27;;
50126;SDS011;36024;47.974;16.398;2022-08-06T16:31:52;4.20;;;3.90;;
50126;SDS011;36024;47.974;16.398;2022-08-06T16:34:20;3.83;;;3.53;;
50126;SDS011;36024;47.974;16.398;2022-08-06T16:36:48;4.33;;;3.40;;
50126;SDS011;36024;47.974;16.398;2022-08-06T16:39:17;3.30;;;3.00;;
50126;SDS011;36024;47.974;16.398;2022-08-06T16:42:05;3.10;;;2.90;;